createdAt,value
2022-09-02T00:04:47.168Z,8.60
2022-09-02T00:09:49.875Z,8.50
2022-09-02T00:14:52.658Z,8.50
2022-09-02T00:19:57.014Z,8.40
2022-09-02T00:24:59.808Z,8.40
2022-09-02T00:30:02.974Z,8.30
2022-09-02T00:35:06.643Z,8.30
2022-09-02T00:40:12.005Z,8.10
2022-09-02T00:45:15.215Z,8.10
2022-09-02T00:50:22.950Z,8.00
2022-09-02T00:55:36.493Z,8.00
2022-09-02T01:00:44.743Z,8.00
2022-09-02T01:05:49.390Z,8.10
2022-09-02T01:10:55.958Z,8.10
2022-09-02T01:16:28.154Z,7.90
2022-09-02T01:21:31.314Z,7.80
2022-09-02T01:26:34.213Z,7.80
2022-09-02T01:31:37.264Z,7.70
2022-09-02T01:36:42.298Z,7.60
2022-09-02T01:41:45.570Z,7.60
2022-09-02T01:46:48.467Z,7.50
2022-09-02T01:51:55.199Z,7.50
2022-09-02T01:56:59.755Z,7.60
2022-09-02T02:02:02.892Z,7.50
2022-09-02T02:07:07.156Z,7.50
2022-09-02T02:12:10.653Z,7.40
2022-09-02T02:17:13.434Z,7.40
2022-09-02T02:22:16.549Z,7.50
2022-09-02T02:27:19.614Z,7.40
2022-09-02T02:32:23.201Z,7.30
2022-09-02T02:37:27.004Z,7.20
2022-09-02T02:42:30.027Z,7.20
2022-09-02T02:47:32.895Z,7.00
2022-09-02T02:52:36.257Z,6.90
2022-09-02T02:57:40.320Z,6.90
2022-09-02T03:02:43.507Z,6.80
2022-09-02T03:07:46.553Z,6.80
2022-09-02T03:12:52.213Z,6.70
2022-09-02T03:17:58.120Z,6.70
2022-09-02T03:23:01.365Z,6.70
2022-09-02T03:28:05.259Z,6.60
2022-09-02T03:33:08.330Z,6.60
2022-09-02T03:38:12.763Z,6.60
2022-09-02T03:43:15.884Z,6.50
2022-09-02T03:48:18.886Z,6.60
2022-09-02T03:53:21.888Z,6.60
2022-09-02T03:58:30.854Z,6.50
2022-09-02T04:03:35.837Z,6.60
2022-09-02T04:08:42.468Z,6.50
2022-09-02T04:13:46.941Z,6.50
2022-09-02T04:18:52.738Z,6.50
2022-09-02T04:23:58.958Z,6.60
2022-09-02T04:29:02.517Z,6.60
2022-09-02T04:34:07.166Z,6.60
2022-09-02T04:39:11.097Z,6.70
2022-09-02T04:44:14.858Z,6.80
2022-09-02T04:49:21.890Z,6.80
2022-09-02T04:54:28.682Z,7.20
2022-09-02T04:59:36.708Z,7.40
2022-09-02T05:04:43.705Z,7.50
2022-09-02T05:09:59.889Z,7.50
2022-09-02T05:15:08.859Z,7.60
2022-09-02T05:20:13.489Z,7.80
2022-09-02T05:25:17.501Z,8.00
2022-09-02T05:30:21.569Z,8.40
2022-09-02T05:35:26.490Z,8.70
2022-09-02T05:40:29.451Z,9.20
2022-09-02T05:45:34.805Z,9.80
2022-09-02T05:50:38.189Z,10.40
2022-09-02T05:55:41.770Z,11.10
2022-09-02T06:00:45.247Z,11.80
2022-09-02T06:06:04.382Z,12.50
2022-09-02T06:11:12.791Z,12.70
2022-09-02T06:16:20.381Z,13.00
2022-09-02T06:21:25.360Z,13.60
2022-09-02T06:26:30.349Z,14.00
2022-09-02T06:31:34.613Z,14.10
2022-09-02T06:36:41.784Z,14.10
2022-09-02T06:41:47.099Z,14.30
2022-09-02T06:46:56.696Z,14.60
2022-09-02T06:52:00.117Z,14.50
2022-09-02T06:57:07.655Z,14.80
2022-09-02T07:02:13.217Z,14.70
2022-09-02T07:07:16.940Z,14.80
2022-09-02T07:12:27.632Z,15.00
2022-09-02T07:17:35.749Z,15.00
2022-09-02T07:22:41.945Z,15.20
2022-09-02T07:27:46.854Z,15.40
2022-09-02T07:32:50.122Z,15.40
2022-09-02T07:37:56.905Z,15.60
2022-09-02T07:42:59.945Z,15.90
2022-09-02T07:48:07.561Z,16.20
2022-09-02T07:53:14.497Z,16.20
2022-09-02T07:58:20.712Z,16.40
2022-09-02T08:03:27.333Z,16.70
2022-09-02T08:08:33.440Z,17.10
2022-09-02T08:13:39.975Z,17.10
2022-09-02T08:18:43.056Z,17.70
2022-09-02T08:23:49.617Z,18.00
2022-09-02T08:28:52.837Z,18.70
2022-09-02T08:33:56.841Z,18.50
2022-09-02T08:39:03.518Z,19.30
2022-09-02T08:44:07.929Z,19.70
2022-09-02T08:49:38.868Z,19.90
2022-09-02T08:54:56.511Z,19.70
2022-09-02T09:00:03.408Z,19.50
2022-09-02T09:05:34.353Z,21.10
2022-09-02T09:11:04.532Z,21.10
2022-09-02T09:16:40.227Z,21.00
2022-09-02T09:21:44.829Z,22.00
2022-09-02T09:26:47.741Z,22.70
2022-09-02T09:31:59.303Z,21.20
2022-09-02T09:37:02.760Z,21.60
2022-09-02T09:42:14.889Z,21.10
2022-09-02T09:47:25.888Z,22.30
2022-09-02T09:52:30.549Z,22.10
2022-09-02T09:57:35.743Z,22.20
2022-09-02T10:02:49.417Z,22.80
2022-09-02T10:08:02.281Z,22.40
2022-09-02T10:13:35.812Z,23.50
2022-09-02T10:18:49.159Z,21.60
2022-09-02T10:24:10.848Z,23.00
2022-09-02T10:29:41.406Z,24.00
2022-09-02T10:35:18.289Z,24.20
2022-09-02T10:40:34.344Z,23.40
2022-09-02T10:45:37.229Z,22.90
2022-09-02T10:50:58.467Z,23.60
2022-09-02T10:56:09.687Z,23.10
2022-09-02T11:01:33.949Z,23.70
2022-09-02T11:07:01.380Z,23.30
2022-09-02T11:12:08.039Z,21.30
2022-09-02T11:17:24.680Z,20.70
2022-09-02T11:22:54.431Z,21.60
2022-09-02T11:28:09.150Z,21.80
2022-09-02T11:33:53.629Z,22.00
2022-09-02T11:39:08.329Z,21.80
2022-09-02T11:44:39.413Z,21.20
2022-09-02T11:50:04.255Z,22.30
2022-09-02T11:55:20.231Z,21.20
2022-09-02T12:00:31.470Z,21.40
2022-09-02T12:05:37.736Z,21.50
2022-09-02T12:10:43.949Z,22.90
2022-09-02T12:15:47.099Z,24.20
2022-09-02T12:21:00.550Z,24.30
2022-09-02T12:26:14.072Z,23.60
2022-09-02T12:31:51.466Z,24.20
2022-09-02T12:37:02.842Z,24.10
2022-09-02T12:42:11.279Z,24.80
2022-09-02T12:47:20.344Z,23.90
2022-09-02T12:52:35.211Z,23.00
2022-09-02T12:57:46.550Z,22.50
2022-09-02T13:03:21.899Z,22.50
2022-09-02T13:08:43.506Z,24.00
2022-09-02T13:14:10.939Z,23.00
2022-09-02T13:19:42.151Z,22.00
2022-09-02T13:25:09.351Z,22.40
2022-09-02T13:30:19.884Z,22.60
2022-09-02T13:35:26.826Z,22.30
2022-09-02T13:40:34.293Z,21.50
2022-09-02T13:45:37.853Z,21.20
2022-09-02T13:50:57.795Z,21.10
2022-09-02T13:56:02.683Z,21.30
2022-09-02T14:01:22.676Z,21.60
2022-09-02T14:06:38.292Z,21.30
2022-09-02T14:11:46.012Z,21.10
2022-09-02T14:16:49.266Z,20.90
2022-09-02T14:21:57.981Z,20.60
2022-09-02T14:27:01.372Z,20.90
2022-09-02T14:32:11.934Z,20.60
2022-09-02T14:37:29.051Z,20.60
2022-09-02T14:42:32.192Z,20.40
2022-09-02T14:47:39.973Z,20.40
2022-09-02T14:52:49.903Z,20.60
2022-09-02T14:58:05.002Z,20.30
2022-09-02T15:03:08.632Z,20.40
2022-09-02T15:08:12.286Z,20.50
2022-09-02T15:13:35.493Z,20.30
2022-09-02T15:18:38.331Z,19.90
2022-09-02T15:23:41.389Z,19.90
2022-09-02T15:28:45.652Z,19.80
2022-09-02T15:33:53.180Z,19.60
2022-09-02T15:38:56.631Z,19.60
2022-09-02T15:44:02.424Z,19.60
2022-09-02T15:49:10.599Z,19.50
2022-09-02T15:54:16.587Z,19.30
2022-09-02T15:59:23.684Z,19.20
2022-09-02T16:04:30.464Z,19.00
2022-09-02T16:09:34.894Z,18.90
2022-09-02T16:14:38.741Z,18.80
2022-09-02T16:19:41.701Z,18.80
2022-09-02T16:24:44.792Z,18.60
2022-09-02T16:29:47.590Z,18.50
2022-09-02T16:34:50.519Z,18.40
2022-09-02T16:39:53.399Z,18.30
2022-09-02T16:44:56.562Z,18.20
2022-09-02T16:49:59.655Z,18.10
2022-09-02T16:55:03.831Z,17.90
2022-09-02T17:00:07.669Z,17.60
2022-09-02T17:05:11.283Z,17.50
2022-09-02T17:10:14.213Z,17.30
2022-09-02T17:15:17.191Z,17.10
2022-09-02T17:20:20.845Z,16.90
2022-09-02T17:25:24.551Z,16.70
2022-09-02T17:30:27.764Z,16.50
2022-09-02T17:35:31.338Z,16.20
2022-09-02T17:40:52.462Z,16.10
2022-09-02T17:46:08.907Z,16.00
2022-09-02T17:51:12.068Z,15.80
2022-09-02T17:56:32.911Z,15.90
2022-09-02T18:01:43.591Z,15.80
2022-09-02T18:06:50.236Z,15.80
2022-09-02T18:11:53.310Z,15.80
2022-09-02T18:17:27.601Z,15.60
2022-09-02T18:22:45.556Z,15.30
2022-09-02T18:28:17.662Z,15.20
2022-09-02T18:33:47.580Z,15.00
2022-09-02T18:39:09.111Z,14.90
2022-09-02T18:44:36.669Z,14.70
2022-09-02T18:49:40.145Z,14.50
2022-09-02T18:55:01.980Z,14.40
2022-09-02T19:00:09.856Z,14.30
2022-09-02T19:05:16.884Z,14.30
2022-09-02T19:10:19.762Z,14.30
2022-09-02T19:15:23.749Z,14.30
2022-09-02T19:20:28.430Z,14.30
2022-09-02T19:25:32.348Z,14.40
2022-09-02T19:30:37.250Z,14.30
2022-09-02T19:35:46.854Z,14.30
2022-09-02T19:40:49.861Z,14.40
2022-09-02T19:45:52.865Z,14.30
2022-09-02T19:50:56.079Z,14.20
2022-09-02T19:56:02.330Z,14.30
2022-09-02T20:01:06.821Z,14.30
2022-09-02T20:06:09.606Z,14.20
2022-09-02T20:11:12.481Z,14.00
2022-09-02T20:16:22.818Z,13.90
2022-09-02T20:21:32.141Z,13.80
2022-09-02T20:27:06.191Z,13.70
2022-09-02T20:32:32.672Z,13.60
2022-09-02T20:38:16.985Z,13.50
2022-09-02T20:43:46.888Z,13.50
2022-09-02T20:49:27.568Z,13.50
2022-09-02T20:54:36.251Z,13.50
2022-09-02T21:00:10.253Z,13.30
2022-09-02T21:05:22.155Z,13.30
2022-09-02T21:10:33.028Z,13.30
2022-09-02T21:15:58.957Z,13.40
2022-09-02T21:21:30.270Z,13.30
2022-09-02T21:27:14.164Z,13.20
2022-09-02T21:32:34.010Z,13.20
2022-09-02T21:37:40.614Z,13.20
2022-09-02T21:43:06.000Z,13.00
2022-09-02T21:48:32.690Z,12.80
2022-09-02T21:54:01.112Z,12.60
2022-09-02T21:59:18.369Z,12.30
2022-09-02T22:04:27.435Z,12.30
2022-09-02T22:09:33.364Z,12.40
2022-09-02T22:15:02.067Z,12.30
2022-09-02T22:20:07.983Z,12.60
2022-09-02T22:25:22.014Z,12.50
2022-09-02T22:30:25.013Z,12.40
2022-09-02T22:35:41.801Z,12.50
2022-09-02T22:40:52.514Z,12.50
2022-09-02T22:46:18.152Z,12.50
2022-09-02T22:51:47.171Z,12.40
2022-09-02T22:57:14.540Z,12.20
2022-09-02T23:02:24.149Z,12.20
2022-09-02T23:07:26.877Z,12.10
2022-09-02T23:13:14.360Z,12.30
2022-09-02T23:18:33.874Z,12.30
2022-09-02T23:24:03.500Z,12.30
2022-09-02T23:29:21.763Z,12.20
2022-09-02T23:34:52.835Z,12.00
2022-09-02T23:40:20.742Z,11.80
2022-09-02T23:45:27.145Z,11.70
2022-09-02T23:50:48.120Z,11.50
2022-09-02T23:56:20.115Z,11.40
